sensor_id;sensor_type;location;lat;lon;timestamp;pressure;altitude;pressure_sealevel;temperature;humidity
22259;BME280;11298;46.034;14.496;2022-11-15T00:01:29;98458.63;;;11.24;95.25
22259;BME280;11298;46.034;14.496;2022-11-15T00:04:15;98457.56;;;11.25;95.43
22259;BME280;11298;46.034;14.496;2022-11-15T00:07:01;98451.28;;;11.25;95.42
22259;BME280;11298;46.034;14.496;2022-11-15T00:09:46;98440.84;;;11.22;95.41
22259;BME280;11298;46.034;14.496;2022-11-15T00:12:32;98452.34;;;11.24;95.52
22259;BME280;11298;46.034;14.496;2022-11-15T00:15:18;98451.50;;;11.23;95.62
22259;BME280;11298;46.034;14.496;2022-11-15T00:18:04;98451.09;;;11.26;95.65
22259;BME280;11298;46.034;14.496;2022-11-15T00:20:51;98445.44;;;11.28;95.64
22259;BME280;11298;46.034;14.496;2022-11-15T00:23:36;98444.59;;;11.21;95.58
22259;BME280;11298;46.034;14.496;2022-11-15T00:26:23;98441.47;;;11.17;95.82
22259;BME280;11298;46.034;14.496;2022-11-15T00:29:09;98443.78;;;11.20;95.69
22259;BME280;11298;46.034;14.496;2022-11-15T00:31:54;98443.78;;;11.20;95.78
22259;BME280;11298;46.034;14.496;2022-11-15T00:34:39;98436.66;;;11.19;96.00
22259;BME280;11298;46.034;14.496;2022-11-15T00:37:25;98425.78;;;11.19;95.85
22259;BME280;11298;46.034;14.496;2022-11-15T00:40:11;98437.09;;;11.23;95.98
22259;BME280;11298;46.034;14.496;2022-11-15T00:42:58;98428.72;;;11.24;95.83
22259;BME280;11298;46.034;14.496;2022-11-15T00:45:43;98432.25;;;11.25;95.58
22259;BME280;11298;46.034;14.496;2022-11-15T00:48:29;98424.31;;;11.23;95.88
22259;BME280;11298;46.034;14.496;2022-11-15T00:51:14;98432.88;;;11.27;95.68
22259;BME280;11298;46.034;14.496;2022-11-15T00:54:00;98425.16;;;11.24;95.91
22259;BME280;11298;46.034;14.496;2022-11-15T00:56:46;98428.31;;;11.21;95.99
22259;BME280;11298;46.034;14.496;2022-11-15T00:59:31;98422.03;;;11.14;96.30
22259;BME280;11298;46.034;14.496;2022-11-15T01:02:17;98419.09;;;11.15;96.38
22259;BME280;11298;46.034;14.496;2022-11-15T01:05:03;98419.31;;;11.14;96.12
22259;BME280;11298;46.034;14.496;2022-11-15T01:07:52;98430.19;;;11.14;96.33
22259;BME280;11298;46.034;14.496;2022-11-15T01:10:38;98420.38;;;11.13;96.49
22259;BME280;11298;46.034;14.496;2022-11-15T01:13:24;98410.75;;;11.17;96.25
22259;BME280;11298;46.034;14.496;2022-11-15T01:16:14;98414.94;;;11.13;96.55
22259;BME280;11298;46.034;14.496;2022-11-15T01:19:00;98407.41;;;11.15;96.61
22259;BME280;11298;46.034;14.496;2022-11-15T01:21:49;98405.94;;;11.19;96.11
22259;BME280;11298;46.034;14.496;2022-11-15T01:24:35;98407.41;;;11.21;96.07
22259;BME280;11298;46.034;14.496;2022-11-15T01:27:20;98403.41;;;11.24;96.03
22259;BME280;11298;46.034;14.496;2022-11-15T01:30:07;98374.38;;;11.11;96.08
22259;BME280;11298;46.034;14.496;2022-11-15T01:32:53;98396.09;;;11.24;95.87
22259;BME280;11298;46.034;14.496;2022-11-15T01:35:39;98386.06;;;11.25;95.93
22259;BME280;11298;46.034;14.496;2022-11-15T01:38:25;98388.38;;;11.21;96.21
22259;BME280;11298;46.034;14.496;2022-11-15T01:41:20;98390.88;;;11.23;96.38
22259;BME280;11298;46.034;14.496;2022-11-15T01:47:20;98391.31;;;11.20;96.11
22259;BME280;11298;46.034;14.496;2022-11-15T01:50:10;98382.13;;;11.14;96.20
22259;BME280;11298;46.034;14.496;2022-11-15T01:52:57;98365.66;;;10.96;96.59
22259;BME280;11298;46.034;14.496;2022-11-15T01:55:43;98386.75;;;11.07;96.70
22259;BME280;11298;46.034;14.496;2022-11-15T01:58:28;98377.56;;;11.08;96.65
22259;BME280;11298;46.034;14.496;2022-11-15T02:01:14;98369.63;;;11.06;96.72
22259;BME280;11298;46.034;14.496;2022-11-15T02:07:05;98370.03;;;11.03;97.05
22259;BME280;11298;46.034;14.496;2022-11-15T02:09:52;98366.28;;;11.04;96.86
22259;BME280;11298;46.034;14.496;2022-11-15T02:12:39;98366.06;;;11.06;96.75
22259;BME280;11298;46.034;14.496;2022-11-15T02:15:28;98359.97;;;11.11;97.06
22259;BME280;11298;46.034;14.496;2022-11-15T02:18:45;98369.78;;;11.12;97.01
22259;BME280;11298;46.034;14.496;2022-11-15T02:34:25;98356.25;;;10.92;97.55
22259;BME280;11298;46.034;14.496;2022-11-15T02:37:36;98347.50;;;10.90;97.57
22259;BME280;11298;46.034;14.496;2022-11-15T02:43:21;98338.09;;;10.86;97.71
22259;BME280;11298;46.034;14.496;2022-11-15T02:46:41;98331.19;;;10.83;97.72
22259;BME280;11298;46.034;14.496;2022-11-15T02:49:50;98331.81;;;10.85;97.96
22259;BME280;11298;46.034;14.496;2022-11-15T02:52:37;98322.84;;;10.85;97.68
22259;BME280;11298;46.034;14.496;2022-11-15T02:55:33;98332.84;;;10.91;97.38
22259;BME280;11298;46.034;14.496;2022-11-15T02:59:00;98324.09;;;10.89;97.41
22259;BME280;11298;46.034;14.496;2022-11-15T03:05:03;98322.00;;;10.84;97.93
22259;BME280;11298;46.034;14.496;2022-11-15T03:11:17;98306.94;;;10.88;97.51
22259;BME280;11298;46.034;14.496;2022-11-15T03:16:59;98299.63;;;10.89;97.63
22259;BME280;11298;46.034;14.496;2022-11-15T03:19:54;98301.94;;;10.85;97.63
22259;BME280;11298;46.034;14.496;2022-11-15T03:22:43;98303.19;;;10.83;97.83
22259;BME280;11298;46.034;14.496;2022-11-15T03:25:31;98306.75;;;10.83;97.90
22259;BME280;11298;46.034;14.496;2022-11-15T03:28:24;98301.31;;;10.83;97.97
22259;BME280;11298;46.034;14.496;2022-11-15T03:31:14;98305.09;;;10.82;97.90
22259;BME280;11298;46.034;14.496;2022-11-15T03:34:39;98311.78;;;10.80;98.01
22259;BME280;11298;46.034;14.496;2022-11-15T03:37:33;98308.22;;;10.79;98.07
22259;BME280;11298;46.034;14.496;2022-11-15T03:40:27;98302.56;;;10.81;97.86
22259;BME280;11298;46.034;14.496;2022-11-15T03:43:33;98308.84;;;10.81;97.84
22259;BME280;11298;46.034;14.496;2022-11-15T03:46:38;98307.22;;;10.73;97.97
22259;BME280;11298;46.034;14.496;2022-11-15T03:49:28;98297.78;;;10.83;98.06
22259;BME280;11298;46.034;14.496;2022-11-15T03:52:20;98308.84;;;10.81;98.27
22259;BME280;11298;46.034;14.496;2022-11-15T03:55:09;98297.56;;;10.78;98.10
22259;BME280;11298;46.034;14.496;2022-11-15T03:57:58;98296.09;;;10.75;98.24
22259;BME280;11298;46.034;14.496;2022-11-15T04:00:45;98299.91;;;10.74;98.40
22259;BME280;11298;46.034;14.496;2022-11-15T04:03:30;98314.69;;;10.78;98.32
22259;BME280;11298;46.034;14.496;2022-11-15T04:06:16;98299.25;;;10.79;98.51
22259;BME280;11298;46.034;14.496;2022-11-15T04:09:02;98291.72;;;10.81;98.23
22259;BME280;11298;46.034;14.496;2022-11-15T04:11:47;98283.34;;;10.82;98.21
22259;BME280;11298;46.034;14.496;2022-11-15T04:14:33;98288.38;;;10.85;98.47
22259;BME280;11298;46.034;14.496;2022-11-15T04:17:19;98282.72;;;10.87;98.31
22259;BME280;11298;46.034;14.496;2022-11-15T04:20:25;98283.97;;;10.84;98.35
22259;BME280;11298;46.034;14.496;2022-11-15T04:23:30;98289.41;;;10.84;98.07
22259;BME280;11298;46.034;14.496;2022-11-15T04:26:34;98282.94;;;10.85;98.20
22259;BME280;11298;46.034;14.496;2022-11-15T04:29:20;98280.63;;;10.82;98.24
22259;BME280;11298;46.034;14.496;2022-11-15T04:32:21;98274.59;;;10.80;98.42
22259;BME280;11298;46.034;14.496;2022-11-15T04:35:07;98274.38;;;10.75;98.76
22259;BME280;11298;46.034;14.496;2022-11-15T04:37:53;98277.09;;;10.75;99.04
22259;BME280;11298;46.034;14.496;2022-11-15T04:40:39;98281.69;;;10.74;99.15
22259;BME280;11298;46.034;14.496;2022-11-15T04:43:25;98268.38;;;10.73;98.92
22259;BME280;11298;46.034;14.496;2022-11-15T04:46:10;98273.78;;;10.73;99.26
22259;BME280;11298;46.034;14.496;2022-11-15T04:48:56;98273.56;;;10.74;99.05
22259;BME280;11298;46.034;14.496;2022-11-15T04:51:43;98263.75;;;10.73;98.84
22259;BME280;11298;46.034;14.496;2022-11-15T04:54:29;98269.63;;;10.70;99.29
22259;BME280;11298;46.034;14.496;2022-11-15T04:57:15;98274.00;;;10.71;99.34
22259;BME280;11298;46.034;14.496;2022-11-15T05:00:04;98265.44;;;10.68;99.32
22259;BME280;11298;46.034;14.496;2022-11-15T05:02:50;98269.84;;;10.69;99.42
22259;BME280;11298;46.034;14.496;2022-11-15T05:05:55;98272.13;;;10.72;99.26
22259;BME280;11298;46.034;14.496;2022-11-15T05:08:42;98263.31;;;10.77;99.18
22259;BME280;11298;46.034;14.496;2022-11-15T05:11:27;98261.63;;;10.75;99.30
22259;BME280;11298;46.034;14.496;2022-11-15T05:14:13;98266.88;;;10.77;99.11
22259;BME280;11298;46.034;14.496;2022-11-15T05:16:59;98258.72;;;10.77;99.44
22259;BME280;11298;46.034;14.496;2022-11-15T05:19:44;98257.25;;;10.81;99.13
22259;BME280;11298;46.034;14.496;2022-11-15T05:22:30;98255.34;;;10.82;99.10
22259;BME280;11298;46.034;14.496;2022-11-15T05:25:15;98245.13;;;10.77;98.90
22259;BME280;11298;46.034;14.496;2022-11-15T05:28:01;98255.56;;;10.87;99.03
22259;BME280;11298;46.034;14.496;2022-11-15T05:30:46;98255.34;;;10.88;98.80
22259;BME280;11298;46.034;14.496;2022-11-15T05:33:33;98251.38;;;10.91;98.82
22259;BME280;11298;46.034;14.496;2022-11-15T05:39:06;98248.22;;;10.94;98.70
22259;BME280;11298;46.034;14.496;2022-11-15T05:42:02;98243.63;;;10.94;99.02
22259;BME280;11298;46.034;14.496;2022-11-15T05:44:51;98243.00;;;10.92;98.89
22259;BME280;11298;46.034;14.496;2022-11-15T05:47:38;98249.47;;;10.91;99.06
22259;BME280;11298;46.034;14.496;2022-11-15T05:50:26;98257.41;;;10.93;99.21
22259;BME280;11298;46.034;14.496;2022-11-15T05:53:13;98256.59;;;10.92;99.21
22259;BME280;11298;46.034;14.496;2022-11-15T05:56:00;98256.81;;;10.84;98.97
22259;BME280;11298;46.034;14.496;2022-11-15T05:58:46;98241.66;;;10.63;99.32
22259;BME280;11298;46.034;14.496;2022-11-15T06:01:32;98261.63;;;10.75;99.68
22259;BME280;11298;46.034;14.496;2022-11-15T06:04:19;98255.84;;;10.72;99.64
22259;BME280;11298;46.034;14.496;2022-11-15T06:07:04;98265.41;;;10.74;99.39
22259;BME280;11298;46.034;14.496;2022-11-15T06:09:50;98266.88;;;10.77;99.58
22259;BME280;11298;46.034;14.496;2022-11-15T06:12:36;98257.66;;;10.78;99.54
22259;BME280;11298;46.034;14.496;2022-11-15T06:15:21;98270.41;;;10.84;99.42
22259;BME280;11298;46.034;14.496;2022-11-15T06:18:07;98270.19;;;10.86;99.15
22259;BME280;11298;46.034;14.496;2022-11-15T06:20:53;98261.81;;;10.87;99.21
22259;BME280;11298;46.034;14.496;2022-11-15T06:23:43;98267.66;;;10.91;99.11
22259;BME280;11298;46.034;14.496;2022-11-15T06:26:28;98269.34;;;10.85;99.19
22259;BME280;11298;46.034;14.496;2022-11-15T06:29:14;98268.72;;;10.83;99.63
22259;BME280;11298;46.034;14.496;2022-11-15T06:32:00;98269.16;;;10.80;99.53
22259;BME280;11298;46.034;14.496;2022-11-15T06:34:45;98275.81;;;10.84;99.41
22259;BME280;11298;46.034;14.496;2022-11-15T06:37:33;98282.50;;;10.88;99.55
22259;BME280;11298;46.034;14.496;2022-11-15T06:40:18;98276.44;;;10.93;99.10
22259;BME280;11298;46.034;14.496;2022-11-15T06:43:05;98276.84;;;10.96;99.50
22259;BME280;11298;46.034;14.496;2022-11-15T06:45:51;98278.72;;;11.02;99.15
22259;BME280;11298;46.034;14.496;2022-11-15T06:48:37;98271.59;;;11.01;99.32
22259;BME280;11298;46.034;14.496;2022-11-15T06:51:22;98283.72;;;11.05;99.39
22259;BME280;11298;46.034;14.496;2022-11-15T06:54:08;98287.06;;;11.07;99.13
22259;BME280;11298;46.034;14.496;2022-11-15T06:56:53;98284.34;;;11.07;98.95
22259;BME280;11298;46.034;14.496;2022-11-15T06:59:39;98286.59;;;11.11;99.03
22259;BME280;11298;46.034;14.496;2022-11-15T07:02:25;98283.44;;;11.14;98.71
22259;BME280;11298;46.034;14.496;2022-11-15T07:05:11;98283.44;;;11.20;98.71
22259;BME280;11298;46.034;14.496;2022-11-15T07:07:57;98274.41;;;11.26;98.38
22259;BME280;11298;46.034;14.496;2022-11-15T07:10:43;98281.72;;;11.26;98.58
22259;BME280;11298;46.034;14.496;2022-11-15T07:13:30;98284.22;;;11.27;98.88
22259;BME280;11298;46.034;14.496;2022-11-15T07:16:21;98274.81;;;11.30;98.51
22259;BME280;11298;46.034;14.496;2022-11-15T07:19:08;98283.16;;;11.35;98.40
22259;BME280;11298;46.034;14.496;2022-11-15T07:21:54;98287.72;;;11.41;98.43
22259;BME280;11298;46.034;14.496;2022-11-15T07:24:39;98294.59;;;11.43;98.08
22259;BME280;11298;46.034;14.496;2022-11-15T07:27:25;98287.50;;;11.43;98.00
22259;BME280;11298;46.034;14.496;2022-11-15T07:30:11;98293.94;;;11.48;98.09
22259;BME280;11298;46.034;14.496;2022-11-15T07:33:00;98291.41;;;11.53;97.79
22259;BME280;11298;46.034;14.496;2022-11-15T07:35:46;98292.25;;;11.54;97.55
22259;BME280;11298;46.034;14.496;2022-11-15T07:38:35;98291.44;;;11.47;98.11
22259;BME280;11298;46.034;14.496;2022-11-15T07:41:27;98285.00;;;11.41;98.08
22259;BME280;11298;46.034;14.496;2022-11-15T07:44:12;98279.56;;;11.41;98.04
22259;BME280;11298;46.034;14.496;2022-11-15T07:46:58;98281.00;;;11.43;97.70
22259;BME280;11298;46.034;14.496;2022-11-15T07:49:44;98280.97;;;11.50;97.58
22259;BME280;11298;46.034;14.496;2022-11-15T07:52:31;98282.19;;;11.54;97.18
22259;BME280;11298;46.034;14.496;2022-11-15T07:55:16;98276.31;;;11.57;97.31
22259;BME280;11298;46.034;14.496;2022-11-15T07:58:03;98274.88;;;11.55;97.19
22259;BME280;11298;46.034;14.496;2022-11-15T08:00:49;98279.03;;;11.57;97.04
22259;BME280;11298;46.034;14.496;2022-11-15T08:03:35;98277.81;;;11.53;97.18
22259;BME280;11298;46.034;14.496;2022-11-15T08:06:21;98279.66;;;11.59;97.23
22259;BME280;11298;46.034;14.496;2022-11-15T08:09:09;98279.84;;;11.64;96.88
22259;BME280;11298;46.034;14.496;2022-11-15T08:11:55;98279.19;;;11.69;96.91
22259;BME280;11298;46.034;14.496;2022-11-15T08:14:40;98276.25;;;11.70;96.64
22259;BME280;11298;46.034;14.496;2022-11-15T08:17:26;98265.38;;;11.70;96.91
22259;BME280;11298;46.034;14.496;2022-11-15T08:20:11;98257.84;;;11.72;96.73
22259;BME280;11298;46.034;14.496;2022-11-15T08:22:59;98261.59;;;11.71;96.54
22259;BME280;11298;46.034;14.496;2022-11-15T08:25:45;98246.13;;;11.72;96.43
22259;BME280;11298;46.034;14.496;2022-11-15T08:28:31;98252.75;;;11.83;96.08
22259;BME280;11298;46.034;14.496;2022-11-15T08:31:18;98258.59;;;11.86;95.76
22259;BME280;11298;46.034;14.496;2022-11-15T08:34:05;98251.69;;;11.84;95.78
22259;BME280;11298;46.034;14.496;2022-11-15T08:36:51;98252.53;;;11.84;95.84
22259;BME280;11298;46.034;14.496;2022-11-15T08:39:36;98255.69;;;11.81;95.97
22259;BME280;11298;46.034;14.496;2022-11-15T08:42:23;98247.69;;;11.86;95.93
22259;BME280;11298;46.034;14.496;2022-11-15T08:45:09;98250.53;;;11.98;95.50
22259;BME280;11298;46.034;14.496;2022-11-15T08:47:55;98249.06;;;12.02;95.39
22259;BME280;11298;46.034;14.496;2022-11-15T08:50:41;98259.50;;;12.05;95.27
22259;BME280;11298;46.034;14.496;2022-11-15T08:53:29;98256.44;;;11.95;95.48
22259;BME280;11298;46.034;14.496;2022-11-15T08:56:15;98266.03;;;11.97;95.59
22259;BME280;11298;46.034;14.496;2022-11-15T08:59:00;98258.06;;;12.02;95.24
22259;BME280;11298;46.034;14.496;2022-11-15T09:01:46;98263.00;;;12.12;94.99
22259;BME280;11298;46.034;14.496;2022-11-15T09:04:32;98260.28;;;12.12;94.92
22259;BME280;11298;46.034;14.496;2022-11-15T09:07:18;98266.31;;;12.14;94.66
22259;BME280;11298;46.034;14.496;2022-11-15T09:10:04;98258.97;;;12.15;94.66
22259;BME280;11298;46.034;14.496;2022-11-15T09:12:49;98261.25;;;12.18;94.35
22259;BME280;11298;46.034;14.496;2022-11-15T09:15:35;98256.59;;;12.25;94.22
22259;BME280;11298;46.034;14.496;2022-11-15T09:18:20;98259.13;;;12.45;93.75
22259;BME280;11298;46.034;14.496;2022-11-15T09:21:08;98246.13;;;12.65;93.01
22259;BME280;11298;46.034;14.496;2022-11-15T09:23:54;98249.91;;;12.82;92.60
22259;BME280;11298;46.034;14.496;2022-11-15T09:26:40;98249.47;;;13.03;91.83
22259;BME280;11298;46.034;14.496;2022-11-15T09:29:26;98245.59;;;13.29;91.08
22259;BME280;11298;46.034;14.496;2022-11-15T09:32:12;98247.56;;;13.52;90.53
22259;BME280;11298;46.034;14.496;2022-11-15T09:34:58;98251.53;;;13.68;89.74
22259;BME280;11298;46.034;14.496;2022-11-15T09:37:43;98250.56;;;14.27;88.21
22259;BME280;11298;46.034;14.496;2022-11-15T09:40:31;98260.03;;;14.55;86.69
22259;BME280;11298;46.034;14.496;2022-11-15T09:46:57;98255.72;;;14.59;85.21
22259;BME280;11298;46.034;14.496;2022-11-15T09:49:42;98246.25;;;14.50;85.08
22259;BME280;11298;46.034;14.496;2022-11-15T09:52:25;98240.75;;;14.38;85.33
22259;BME280;11298;46.034;14.496;2022-11-15T09:54:53;98240.03;;;14.19;85.40
22259;BME280;11298;46.034;14.496;2022-11-15T10:00:25;98225.25;;;13.85;85.79
22259;BME280;11298;46.034;14.496;2022-11-15T10:03:20;98214.81;;;13.82;85.57
22259;BME280;11298;46.034;14.496;2022-11-15T10:05:52;98219.22;;;13.83;85.43
22259;BME280;11298;46.034;14.496;2022-11-15T10:11:28;98203.41;;;13.73;84.82
22259;BME280;11298;46.034;14.496;2022-11-15T10:14:21;98194.16;;;13.74;84.90
22259;BME280;11298;46.034;14.496;2022-11-15T10:19:35;98189.28;;;13.77;84.16
22259;BME280;11298;46.034;14.496;2022-11-15T10:27:33;98177.66;;;13.69;84.30
22259;BME280;11298;46.034;14.496;2022-11-15T10:30:00;98178.97;;;13.79;84.03
22259;BME280;11298;46.034;14.496;2022-11-15T10:32:28;98163.78;;;13.83;83.86
22259;BME280;11298;46.034;14.496;2022-11-15T10:34:55;98173.88;;;13.94;83.35
22259;BME280;11298;46.034;14.496;2022-11-15T10:37:30;98168.06;;;14.02;83.10
22259;BME280;11298;46.034;14.496;2022-11-15T10:40:13;98170.22;;;14.12;82.70
22259;BME280;11298;46.034;14.496;2022-11-15T10:42:41;98151.56;;;14.08;82.69
22259;BME280;11298;46.034;14.496;2022-11-15T10:45:35;98159.50;;;14.22;82.29
22259;BME280;11298;46.034;14.496;2022-11-15T10:48:21;98151.44;;;14.27;82.19
22259;BME280;11298;46.034;14.496;2022-11-15T10:50:50;98142.03;;;14.34;81.92
22259;BME280;11298;46.034;14.496;2022-11-15T10:53:29;98135.50;;;14.35;81.55
22259;BME280;11298;46.034;14.496;2022-11-15T10:56:02;98138.38;;;14.40;81.33
22259;BME280;11298;46.034;14.496;2022-11-15T10:58:34;98136.38;;;14.48;80.93
22259;BME280;11298;46.034;14.496;2022-11-15T11:01:28;98132.16;;;14.57;80.76
22259;BME280;11298;46.034;14.496;2022-11-15T11:04:05;98120.97;;;14.70;79.88
22259;BME280;11298;46.034;14.496;2022-11-15T11:06:49;98114.06;;;14.79;79.61
22259;BME280;11298;46.034;14.496;2022-11-15T11:11:51;98105.56;;;15.21;76.80
22259;BME280;11298;46.034;14.496;2022-11-15T11:33:42;98084.78;;;15.53;73.14
22259;BME280;11298;46.034;14.496;2022-11-15T11:36:25;98076.09;;;15.56;72.88
22259;BME280;11298;46.034;14.496;2022-11-15T11:44:58;98064.09;;;15.29;73.24
22259;BME280;11298;46.034;14.496;2022-11-15T11:47:36;98052.09;;;15.63;72.15
22259;BME280;11298;46.034;14.496;2022-11-15T11:50:15;98054.91;;;15.85;71.44
22259;BME280;11298;46.034;14.496;2022-11-15T11:53:14;98045.78;;;15.80;71.40
22259;BME280;11298;46.034;14.496;2022-11-15T11:55:45;98045.53;;;15.81;71.20
22259;BME280;11298;46.034;14.496;2022-11-15T11:58:36;98037.34;;;16.03;69.98
22259;BME280;11298;46.034;14.496;2022-11-15T12:01:17;98033.09;;;17.04;67.74
22259;BME280;11298;46.034;14.496;2022-11-15T12:04:29;98033.84;;;17.27;67.17
22259;BME280;11298;46.034;14.496;2022-11-15T12:07:17;98028.78;;;19.07;62.60
22259;BME280;11298;46.034;14.496;2022-11-15T12:09:58;98023.25;;;18.92;62.35
22259;BME280;11298;46.034;14.496;2022-11-15T12:12:47;98015.19;;;17.98;63.97
22259;BME280;11298;46.034;14.496;2022-11-15T12:15:19;98007.31;;;17.37;65.44
22259;BME280;11298;46.034;14.496;2022-11-15T12:17:48;98002.00;;;16.94;66.44
22259;BME280;11298;46.034;14.496;2022-11-15T12:20:23;98004.16;;;16.65;66.68
22259;BME280;11298;46.034;14.496;2022-11-15T12:31:39;97988.06;;;16.25;67.04
22259;BME280;11298;46.034;14.496;2022-11-15T12:36:50;97993.38;;;18.33;60.94
22259;BME280;11298;46.034;14.496;2022-11-15T12:39:18;97987.91;;;17.86;61.70
22259;BME280;11298;46.034;14.496;2022-11-15T12:47:22;97979.31;;;16.50;64.61
22259;BME280;11298;46.034;14.496;2022-11-15T12:49:50;97969.97;;;16.24;65.00
22259;BME280;11298;46.034;14.496;2022-11-15T12:52:17;97973.53;;;16.02;65.33
22259;BME280;11298;46.034;14.496;2022-11-15T12:54:56;97966.72;;;15.83;65.61
22259;BME280;11298;46.034;14.496;2022-11-15T12:57:35;97969.16;;;15.63;65.25
22259;BME280;11298;46.034;14.496;2022-11-15T13:02:45;97955.00;;;15.49;65.34
22259;BME280;11298;46.034;14.496;2022-11-15T13:17:44;97954.25;;;17.22;59.95
22259;BME280;11298;46.034;14.496;2022-11-15T13:27:53;97941.00;;;15.46;63.65
22259;BME280;11298;46.034;14.496;2022-11-15T13:30:31;97942.56;;;15.25;64.32
22259;BME280;11298;46.034;14.496;2022-11-15T13:33:05;97934.94;;;16.26;62.21
22259;BME280;11298;46.034;14.496;2022-11-15T13:35:39;97941.03;;;17.19;59.82
22259;BME280;11298;46.034;14.496;2022-11-15T13:38:29;97936.97;;;16.62;61.01
22259;BME280;11298;46.034;14.496;2022-11-15T13:40:58;97936.66;;;16.10;62.28
22259;BME280;11298;46.034;14.496;2022-11-15T13:43:29;97931.97;;;15.84;62.89
22259;BME280;11298;46.034;14.496;2022-11-15T13:46:09;97934.66;;;15.62;63.49
22259;BME280;11298;46.034;14.496;2022-11-15T13:48:38;97932.88;;;15.51;63.98
22259;BME280;11298;46.034;14.496;2022-11-15T13:51:10;97928.38;;;16.05;62.60
22259;BME280;11298;46.034;14.496;2022-11-15T13:53:45;97931.06;;;17.45;58.98
22259;BME280;11298;46.034;14.496;2022-11-15T13:56:15;97923.22;;;18.21;56.41
22259;BME280;11298;46.034;14.496;2022-11-15T13:58:45;97939.31;;;18.80;54.57
22259;BME280;11298;46.034;14.496;2022-11-15T14:01:18;97931.88;;;18.75;54.07
22259;BME280;11298;46.034;14.496;2022-11-15T14:06:19;97932.75;;;17.93;56.22
22259;BME280;11298;46.034;14.496;2022-11-15T14:11:53;97923.41;;;16.78;59.13
22259;BME280;11298;46.034;14.496;2022-11-15T14:14:23;97922.47;;;16.13;61.37
22259;BME280;11298;46.034;14.496;2022-11-15T14:16:53;97886.66;;;15.54;62.75
22259;BME280;11298;46.034;14.496;2022-11-15T14:22:10;97900.09;;;15.17;64.81
22259;BME280;11298;46.034;14.496;2022-11-15T14:24:38;97901.84;;;15.06;65.09
22259;BME280;11298;46.034;14.496;2022-11-15T14:27:24;97899.94;;;14.90;65.92
22259;BME280;11298;46.034;14.496;2022-11-15T14:29:53;97901.44;;;14.81;66.67
22259;BME280;11298;46.034;14.496;2022-11-15T14:32:26;97895.06;;;14.75;67.22
22259;BME280;11298;46.034;14.496;2022-11-15T14:34:56;97895.31;;;14.74;67.31
22259;BME280;11298;46.034;14.496;2022-11-15T14:37:29;97869.88;;;14.57;67.92
22259;BME280;11298;46.034;14.496;2022-11-15T14:40:00;97886.53;;;14.55;68.14
22259;BME280;11298;46.034;14.496;2022-11-15T14:42:27;97884.69;;;14.44;68.63
22259;BME280;11298;46.034;14.496;2022-11-15T14:44:55;97880.44;;;14.36;68.91
22259;BME280;11298;46.034;14.496;2022-11-15T14:47:22;97882.91;;;14.38;68.91
22259;BME280;11298;46.034;14.496;2022-11-15T14:49:49;97878.66;;;14.30;69.20
22259;BME280;11298;46.034;14.496;2022-11-15T14:52:27;97875.09;;;14.30;69.24
22259;BME280;11298;46.034;14.496;2022-11-15T14:54:59;97858.97;;;14.28;69.39
22259;BME280;11298;46.034;14.496;2022-11-15T14:57:28;97847.78;;;14.13;69.88
22259;BME280;11298;46.034;14.496;2022-11-15T14:59:56;97869.78;;;14.23;69.73
22259;BME280;11298;46.034;14.496;2022-11-15T15:02:37;97862.69;;;14.22;69.92
22259;BME280;11298;46.034;14.496;2022-11-15T15:05:35;97862.63;;;14.17;70.07
22259;BME280;11298;46.034;14.496;2022-11-15T15:08:02;97864.50;;;14.17;70.51
22259;BME280;11298;46.034;14.496;2022-11-15T15:10:35;97846.88;;;14.07;70.48
22259;BME280;11298;46.034;14.496;2022-11-15T15:13:19;97860.13;;;14.16;70.35
22259;BME280;11298;46.034;14.496;2022-11-15T15:15:48;97866.91;;;14.13;70.58
22259;BME280;11298;46.034;14.496;2022-11-15T15:18:16;97857.31;;;14.11;70.50
22259;BME280;11298;46.034;14.496;2022-11-15T15:20:45;97856.97;;;14.07;71.02
22259;BME280;11298;46.034;14.496;2022-11-15T15:23:19;97854.13;;;14.02;70.73
22259;BME280;11298;46.034;14.496;2022-11-15T15:25:47;97856.75;;;13.97;71.08
22259;BME280;11298;46.034;14.496;2022-11-15T15:28:15;97854.63;;;13.99;70.89
22259;BME280;11298;46.034;14.496;2022-11-15T15:30:43;97847.97;;;13.95;71.12
22259;BME280;11298;46.034;14.496;2022-11-15T15:33:10;97852.28;;;13.91;71.48
22259;BME280;11298;46.034;14.496;2022-11-15T15:35:37;97851.63;;;13.84;71.90
22259;BME280;11298;46.034;14.496;2022-11-15T15:38:04;97839.91;;;13.71;72.00
22259;BME280;11298;46.034;14.496;2022-11-15T15:40:32;97841.66;;;13.78;72.30
22259;BME280;11298;46.034;14.496;2022-11-15T15:43:00;97843.22;;;13.73;72.62
22259;BME280;11298;46.034;14.496;2022-11-15T15:45:27;97840.88;;;13.65;72.56
22259;BME280;11298;46.034;14.496;2022-11-15T15:47:55;97844.44;;;13.66;72.94
22259;BME280;11298;46.034;14.496;2022-11-15T15:50:27;97848.69;;;13.62;73.05
22259;BME280;11298;46.034;14.496;2022-11-15T15:52:57;97853.34;;;13.61;73.01
22259;BME280;11298;46.034;14.496;2022-11-15T15:55:25;97853.81;;;13.58;73.00
22259;BME280;11298;46.034;14.496;2022-11-15T15:57:53;97856.78;;;13.57;73.11
22259;BME280;11298;46.034;14.496;2022-11-15T16:00:21;97847.19;;;13.54;73.47
22259;BME280;11298;46.034;14.496;2022-11-15T16:02:51;97850.16;;;13.53;73.94
22259;BME280;11298;46.034;14.496;2022-11-15T16:05:18;97854.53;;;13.54;74.03
22259;BME280;11298;46.034;14.496;2022-11-15T16:07:45;97846.03;;;13.50;74.26
22259;BME280;11298;46.034;14.496;2022-11-15T16:10:21;97844.69;;;13.53;74.25
22259;BME280;11298;46.034;14.496;2022-11-15T16:12:49;97843.63;;;13.54;74.51
22259;BME280;11298;46.034;14.496;2022-11-15T16:15:16;97845.53;;;13.53;74.65
22259;BME280;11298;46.034;14.496;2022-11-15T16:17:47;97830.75;;;13.49;74.42
22259;BME280;11298;46.034;14.496;2022-11-15T16:20:41;97837.25;;;13.48;74.17